createdAt,value
2019-02-05T00:03:48.335Z,2.78
2019-02-05T00:07:55.140Z,2.80
2019-02-05T00:12:02.068Z,2.80
2019-02-05T00:16:08.936Z,2.82
2019-02-05T00:20:15.826Z,2.76
2019-02-05T00:24:22.665Z,2.69
2019-02-05T00:28:29.528Z,2.53
2019-02-05T00:32:36.582Z,2.74
2019-02-05T00:36:43.789Z,2.71
2019-02-05T00:40:50.753Z,2.72
2019-02-05T00:44:57.563Z,2.63
2019-02-05T00:49:04.523Z,2.57
2019-02-05T00:53:11.483Z,2.61
2019-02-05T00:57:18.758Z,2.54
2019-02-05T01:01:25.604Z,2.56
2019-02-05T01:05:33.485Z,2.56
2019-02-05T01:09:40.398Z,2.57
2019-02-05T01:13:47.247Z,2.54
2019-02-05T01:17:55.210Z,2.47
2019-02-05T01:22:02.187Z,2.35
2019-02-05T01:26:09.067Z,2.46
2019-02-05T01:30:20.345Z,2.46
2019-02-05T01:34:27.185Z,2.60
2019-02-05T01:38:34.209Z,2.57
2019-02-05T01:42:41.000Z,2.58
2019-02-05T01:46:47.870Z,2.49
2019-02-05T01:50:54.670Z,2.56
2019-02-05T01:55:01.461Z,2.53
2019-02-05T01:59:08.337Z,2.50
2019-02-05T02:03:15.155Z,2.39
2019-02-05T02:07:25.242Z,2.35
2019-02-05T02:11:34.328Z,2.45
2019-02-05T02:15:41.169Z,2.39
2019-02-05T02:19:48.099Z,2.34
2019-02-05T02:23:55.066Z,2.32
2019-02-05T02:28:02.179Z,2.32
2019-02-05T02:32:09.051Z,2.36
2019-02-05T02:36:15.992Z,2.38
2019-02-05T02:40:23.006Z,2.19
2019-02-05T02:44:30.061Z,2.26
2019-02-05T02:48:37.169Z,2.20
2019-02-05T02:52:44.131Z,2.23
2019-02-05T02:56:51.000Z,2.19
2019-02-05T03:00:58.015Z,2.28
2019-02-05T03:05:07.456Z,2.32
2019-02-05T03:09:14.420Z,2.28
2019-02-05T03:13:21.337Z,2.34
2019-02-05T03:17:28.298Z,2.23
2019-02-05T03:21:35.213Z,2.30
2019-02-05T03:25:42.925Z,2.42
2019-02-05T03:29:49.784Z,2.39
2019-02-05T03:33:56.629Z,2.28
2019-02-05T03:38:03.602Z,2.35
2019-02-05T03:42:10.577Z,2.25
2019-02-05T03:46:18.859Z,2.14
2019-02-05T03:50:26.899Z,2.32
2019-02-05T03:55:28.124Z,2.17
2019-02-05T03:59:58.190Z,2.06
2019-02-05T04:05:09.391Z,2.01
2019-02-05T04:10:07.991Z,2.05
2019-02-05T04:14:37.612Z,1.94
2019-02-05T04:19:53.777Z,1.93
2019-02-05T04:24:58.298Z,1.84
2019-02-05T04:30:06.072Z,1.89
2019-02-05T04:35:21.475Z,1.95
2019-02-05T04:40:32.065Z,1.79
2019-02-05T04:45:34.218Z,1.82
2019-02-05T04:50:23.906Z,1.78
2019-02-05T04:55:18.796Z,1.85
2019-02-05T05:00:10.733Z,1.82
2019-02-05T05:04:59.015Z,1.79
2019-02-05T05:10:01.506Z,1.88
2019-02-05T05:14:08.550Z,1.95
2019-02-05T05:18:15.724Z,1.84
2019-02-05T05:22:22.675Z,1.94
2019-02-05T05:26:29.841Z,1.84
2019-02-05T05:30:37.564Z,1.96
2019-02-05T05:34:44.656Z,1.88
2019-02-05T05:38:51.548Z,2.03
2019-02-05T05:42:58.847Z,1.89
2019-02-05T05:47:05.799Z,1.87
2019-02-05T05:51:13.257Z,1.89
2019-02-05T05:55:21.532Z,1.83
2019-02-05T05:59:28.538Z,1.78
2019-02-05T06:03:35.561Z,1.73
2019-02-05T06:07:42.517Z,1.75
2019-02-05T06:11:49.644Z,1.67
2019-02-05T06:15:56.609Z,1.81
2019-02-05T06:20:03.502Z,1.71
2019-02-05T06:24:11.306Z,1.70
2019-02-05T06:28:18.235Z,1.82
2019-02-05T06:32:25.173Z,1.74
2019-02-05T06:36:32.098Z,1.73
2019-02-05T06:40:39.434Z,1.80
2019-02-05T06:44:46.601Z,1.77
2019-02-05T06:48:53.799Z,1.87
2019-02-05T06:53:01.857Z,1.84
2019-02-05T06:57:08.895Z,1.87
2019-02-05T07:01:15.888Z,1.81
2019-02-05T07:05:22.746Z,1.86
2019-02-05T07:09:30.070Z,1.88
2019-02-05T07:13:36.960Z,2.01
2019-02-05T07:17:49.975Z,1.91
2019-02-05T07:21:53.972Z,1.96
2019-02-05T07:26:00.847Z,1.98
2019-02-05T07:30:12.403Z,1.96
2019-02-05T07:34:21.307Z,1.87
2019-02-05T07:38:28.561Z,1.85
2019-02-05T07:42:36.103Z,1.85
2019-02-05T07:46:43.119Z,1.87
2019-02-05T07:50:50.157Z,1.80
2019-02-05T07:54:57.171Z,1.91
2019-02-05T07:59:10.415Z,1.99
2019-02-05T08:03:12.731Z,1.95
2019-02-05T08:07:19.584Z,2.06
2019-02-05T08:11:26.411Z,2.02
2019-02-05T08:15:34.655Z,2.04
2019-02-05T08:19:41.919Z,2.13
2019-02-05T08:23:50.318Z,2.25
2019-02-05T08:27:57.243Z,2.26
2019-02-05T08:32:04.061Z,2.37
2019-02-05T08:36:10.981Z,2.16
2019-02-05T08:40:19.890Z,2.23
2019-02-05T08:44:29.323Z,2.19
2019-02-05T08:48:36.252Z,2.29
2019-02-05T08:52:43.382Z,2.15
2019-02-05T08:56:50.299Z,2.11
2019-02-05T09:00:57.494Z,2.42
2019-02-05T09:05:05.100Z,2.48
2019-02-05T09:09:11.989Z,2.68
2019-02-05T09:13:18.879Z,2.62
2019-02-05T09:17:25.765Z,2.67
2019-02-05T09:21:32.575Z,2.82
2019-02-05T09:25:39.469Z,2.75
2019-02-05T09:29:46.435Z,2.83
2019-02-05T09:33:56.258Z,2.91
2019-02-05T09:38:03.051Z,2.85
2019-02-05T09:42:09.904Z,3.05
2019-02-05T09:46:16.881Z,3.13
2019-02-05T09:50:23.857Z,3.07
2019-02-05T09:54:30.855Z,3.29
2019-02-05T09:58:37.767Z,3.32
2019-02-05T10:02:44.751Z,3.23
2019-02-05T10:06:52.276Z,3.53
2019-02-05T10:10:59.279Z,3.41
2019-02-05T10:15:10.474Z,3.59
2019-02-05T10:19:17.371Z,3.89
2019-02-05T10:23:31.031Z,3.91
2019-02-05T10:27:38.030Z,3.92
2019-02-05T10:31:44.975Z,3.95
2019-02-05T10:35:52.460Z,4.12
2019-02-05T10:39:59.504Z,4.19
2019-02-05T10:44:06.828Z,4.19
2019-02-05T10:48:13.704Z,4.16
2019-02-05T10:52:20.606Z,4.44
2019-02-05T10:56:27.622Z,4.57
2019-02-05T11:00:34.797Z,4.75
2019-02-05T11:04:42.242Z,4.58
2019-02-05T11:08:49.273Z,4.75
2019-02-05T11:12:56.511Z,4.91
2019-02-05T11:17:03.502Z,4.73
2019-02-05T11:21:10.300Z,5.05
2019-02-05T11:25:17.327Z,5.04
2019-02-05T11:29:25.364Z,5.25
2019-02-05T11:33:32.304Z,5.53
2019-02-05T11:37:39.484Z,5.35
2019-02-05T11:41:46.898Z,5.66
2019-02-05T11:45:53.707Z,6.08
2019-02-05T11:50:00.803Z,6.04
2019-02-05T11:54:07.796Z,6.01
2019-02-05T11:58:16.833Z,6.19
2019-02-05T12:02:23.782Z,7.30
2019-02-05T12:06:30.677Z,7.98
2019-02-05T12:10:37.765Z,7.74
2019-02-05T12:14:44.758Z,7.64
2019-02-05T12:18:52.131Z,7.47
2019-02-05T12:22:59.021Z,8.30
2019-02-05T12:27:05.978Z,8.27
2019-02-05T12:31:12.855Z,9.13
2019-02-05T12:35:19.735Z,9.10
2019-02-05T12:39:26.686Z,8.55
2019-02-05T12:43:33.639Z,9.08
2019-02-05T12:47:40.711Z,8.25
2019-02-05T12:51:47.635Z,7.79
2019-02-05T12:55:54.874Z,7.36
2019-02-05T13:00:01.666Z,7.37
2019-02-05T13:04:10.283Z,7.17
2019-02-05T13:08:17.124Z,6.94
2019-02-05T13:12:24.368Z,7.05
2019-02-05T13:16:31.573Z,7.09
2019-02-05T13:20:38.587Z,6.83
2019-02-05T13:24:45.476Z,6.94
2019-02-05T13:28:52.347Z,6.86
2019-02-05T13:33:00.976Z,7.14
2019-02-05T13:37:08.974Z,6.64
2019-02-05T13:41:15.859Z,6.58
2019-02-05T13:45:27.754Z,6.54
2019-02-05T13:49:35.208Z,6.76
2019-02-05T13:53:42.162Z,6.75
2019-02-05T13:57:49.521Z,6.85
2019-02-05T14:01:56.339Z,6.67
2019-02-05T14:06:03.201Z,6.95
2019-02-05T14:10:16.197Z,6.77
2019-02-05T14:14:23.209Z,6.76
2019-02-05T14:18:30.235Z,6.73
2019-02-05T14:22:37.155Z,6.84
2019-02-05T14:26:44.114Z,6.62
2019-02-05T14:31:00.730Z,6.36
2019-02-05T14:35:09.899Z,6.36
2019-02-05T14:39:17.136Z,6.44
2019-02-05T14:43:24.061Z,6.48
2019-02-05T14:47:31.156Z,6.70
2019-02-05T14:51:38.939Z,6.30
2019-02-05T14:55:45.871Z,6.26
2019-02-05T14:59:52.818Z,5.95
2019-02-05T15:04:00.051Z,6.03
2019-02-05T15:08:07.536Z,5.97
2019-02-05T15:12:14.478Z,6.08
2019-02-05T15:16:21.368Z,5.98
2019-02-05T15:20:35.416Z,5.94
2019-02-05T15:24:43.305Z,5.95
2019-02-05T15:28:50.908Z,5.97
2019-02-05T15:33:28.512Z,5.84
2019-02-05T15:37:35.450Z,5.80
2019-02-05T15:41:42.620Z,5.80
2019-02-05T15:45:50.059Z,5.90
2019-02-05T15:50:05.950Z,5.94
2019-02-05T15:54:08.461Z,5.82
2019-02-05T15:58:15.387Z,5.89
2019-02-05T16:02:22.301Z,5.91
2019-02-05T16:06:29.750Z,5.93
2019-02-05T16:10:36.933Z,5.83
2019-02-05T16:14:43.873Z,5.82
2019-02-05T16:18:53.337Z,5.74
2019-02-05T16:22:59.772Z,5.57
2019-02-05T16:27:06.827Z,5.58
2019-02-05T16:31:13.815Z,5.59
2019-02-05T16:35:21.503Z,5.60
2019-02-05T16:39:28.989Z,5.41
2019-02-05T16:43:36.099Z,5.48
2019-02-05T16:47:43.423Z,5.41
2019-02-05T16:51:50.645Z,5.42
2019-02-05T16:55:59.191Z,5.27
2019-02-05T17:00:14.289Z,5.31
2019-02-05T17:04:21.314Z,5.28
2019-02-05T17:08:28.296Z,5.30
2019-02-05T17:12:35.480Z,5.34
2019-02-05T17:16:42.693Z,5.16
2019-02-05T17:20:49.866Z,5.22
2019-02-05T17:24:56.899Z,5.27
2019-02-05T17:29:03.995Z,5.31
2019-02-05T17:33:11.050Z,5.40
2019-02-05T17:37:18.228Z,5.30
2019-02-05T17:41:25.059Z,5.25
2019-02-05T17:45:35.131Z,5.22
2019-02-05T17:49:42.119Z,5.14
2019-02-05T17:53:49.130Z,5.30
2019-02-05T17:57:56.283Z,5.26
2019-02-05T18:02:03.384Z,5.23
2019-02-05T18:06:11.053Z,5.25
2019-02-05T18:10:21.351Z,5.16
2019-02-05T18:14:28.690Z,5.25
2019-02-05T18:18:35.645Z,5.36
2019-02-05T18:22:42.844Z,5.02
2019-02-05T18:26:50.771Z,5.00
2019-02-05T18:30:58.313Z,5.12
2019-02-05T18:35:06.594Z,5.23
2019-02-05T18:39:14.256Z,5.20
2019-02-05T18:43:21.321Z,5.35
2019-02-05T18:47:29.125Z,5.26
2019-02-05T18:51:37.984Z,5.27
2019-02-05T18:55:45.386Z,5.22
2019-02-05T18:59:52.629Z,5.37
2019-02-05T19:04:00.026Z,5.25
2019-02-05T19:08:08.466Z,5.08
2019-02-05T19:12:15.725Z,5.33
2019-02-05T19:16:25.470Z,5.22
2019-02-05T19:20:33.686Z,5.34
2019-02-05T19:24:55.598Z,5.26
2019-02-05T19:29:02.942Z,5.20
2019-02-05T19:33:10.462Z,5.24
2019-02-05T19:37:17.982Z,5.21
2019-02-05T19:41:25.251Z,5.18
2019-02-05T19:45:54.283Z,5.28
2019-02-05T19:50:02.696Z,5.16
2019-02-05T19:54:13.283Z,5.24
2019-02-05T19:58:20.563Z,5.20
2019-02-05T20:02:31.681Z,5.27
2019-02-05T20:06:47.039Z,5.21
2019-02-05T20:10:54.207Z,5.25
2019-02-05T20:15:01.462Z,5.21
2019-02-05T20:19:14.830Z,5.07
2019-02-05T20:23:22.422Z,5.05
2019-02-05T20:27:29.696Z,5.12
2019-02-05T20:31:37.115Z,4.92
2019-02-05T20:35:44.434Z,5.01
2019-02-05T20:39:53.978Z,5.01
2019-02-05T20:44:01.055Z,4.93
2019-02-05T20:48:09.666Z,4.89
2019-02-05T20:52:17.207Z,4.99
2019-02-05T20:56:25.512Z,4.96
2019-02-05T21:00:33.200Z,4.88
2019-02-05T21:04:48.014Z,4.96
2019-02-05T21:08:49.320Z,4.88
2019-02-05T21:12:59.020Z,4.89
2019-02-05T21:17:06.643Z,4.79
2019-02-05T21:21:14.367Z,4.88
2019-02-05T21:25:23.791Z,4.79
2019-02-05T21:29:31.331Z,4.80
2019-02-05T21:46:06.761Z,8.74
2019-02-05T21:50:17.232Z,5.39
2019-02-05T21:54:24.530Z,4.98
2019-02-05T21:58:31.727Z,4.87
2019-02-05T22:02:38.976Z,4.79
2019-02-05T22:06:49.552Z,4.67
2019-02-05T22:10:56.868Z,4.48
2019-02-05T22:15:06.463Z,4.57
2019-02-05T22:19:13.693Z,4.54
2019-02-05T22:23:21.109Z,4.56
2019-02-05T22:27:28.398Z,4.47
2019-02-05T22:31:35.586Z,4.40
2019-02-05T22:35:46.276Z,4.43
2019-02-05T22:39:53.755Z,4.37
2019-02-05T22:44:00.882Z,4.29
2019-02-05T22:48:09.519Z,4.25
2019-02-05T22:52:17.938Z,4.20
2019-02-05T22:56:27.711Z,4.08
2019-02-05T23:01:07.747Z,3.96
2019-02-05T23:06:21.872Z,3.97
2019-02-05T23:10:46.326Z,4.05
2019-02-05T23:14:59.097Z,3.85
2019-02-05T23:19:06.724Z,3.84
2019-02-05T23:23:15.984Z,3.73
2019-02-05T23:27:23.268Z,3.68
2019-02-05T23:31:33.151Z,3.55
2019-02-05T23:35:40.184Z,3.31
2019-02-05T23:39:47.374Z,3.38
2019-02-05T23:43:54.331Z,3.31
2019-02-05T23:48:01.213Z,3.26
2019-02-05T23:52:09.202Z,3.18
2019-02-05T23:56:25.427Z,3.10
